sensor_id;sensor_type;location;lat;lon;timestamp;P1;durP1;ratioP1;P2;durP2;ratioP2
22644;SDS011;11489;50.834;6.752;2022-07-29T00:02:08;2.55;;;1.40;;
22644;SDS011;11489;50.834;6.752;2022-07-29T00:04:34;5.00;;;1.88;;
22644;SDS011;11489;50.834;6.752;2022-07-29T00:07:00;3.90;;;1.48;;
22644;SDS011;11489;50.834;6.752;2022-07-29T00:09:26;3.53;;;1.42;;
22644;SDS011;11489;50.834;6.752;2022-07-29T00:11:52;6.05;;;1.67;;
22644;SDS011;11489;50.834;6.752;2022-07-29T00:14:20;2.58;;;1.33;;
22644;SDS011;11489;50.834;6.752;2022-07-29T00:16:45;4.45;;;1.42;;
22644;SDS011;11489;50.834;6.752;2022-07-29T00:19:11;8.45;;;1.35;;
22644;SDS011;11489;50.834;6.752;2022-07-29T00:21:37;5.95;;;1.38;;
22644;SDS011;11489;50.834;6.752;2022-07-29T00:24:02;5.60;;;1.40;;
22644;SDS011;11489;50.834;6.752;2022-07-29T00:26:28;5.10;;;1.42;;
22644;SDS011;11489;50.834;6.752;2022-07-29T00:28:57;2.90;;;1.60;;
22644;SDS011;11489;50.834;6.752;2022-07-29T00:31:24;6.47;;;1.60;;
22644;SDS011;11489;50.834;6.752;2022-07-29T00:33:49;4.03;;;1.38;;
22644;SDS011;11489;50.834;6.752;2022-07-29T00:36:15;3.53;;;1.65;;
22644;SDS011;11489;50.834;6.752;2022-07-29T00:38:41;2.65;;;1.42;;
22644;SDS011;11489;50.834;6.752;2022-07-29T00:41:10;11.18;;;1.60;;
22644;SDS011;11489;50.834;6.752;2022-07-29T00:43:36;2.85;;;1.63;;
22644;SDS011;11489;50.834;6.752;2022-07-29T00:46:02;8.32;;;1.77;;
22644;SDS011;11489;50.834;6.752;2022-07-29T00:48:28;4.10;;;1.63;;
22644;SDS011;11489;50.834;6.752;2022-07-29T00:50:54;2.10;;;1.40;;
22644;SDS011;11489;50.834;6.752;2022-07-29T00:53:22;3.75;;;1.50;;
22644;SDS011;11489;50.834;6.752;2022-07-29T00:55:49;2.55;;;1.58;;
22644;SDS011;11489;50.834;6.752;2022-07-29T00:58:15;5.70;;;1.70;;
22644;SDS011;11489;50.834;6.752;2022-07-29T01:00:41;4.43;;;1.50;;
22644;SDS011;11489;50.834;6.752;2022-07-29T01:03:07;3.25;;;1.40;;
22644;SDS011;11489;50.834;6.752;2022-07-29T01:05:34;5.07;;;1.50;;
22644;SDS011;11489;50.834;6.752;2022-07-29T01:08:00;3.63;;;1.60;;
22644;SDS011;11489;50.834;6.752;2022-07-29T01:10:27;2.47;;;1.40;;
22644;SDS011;11489;50.834;6.752;2022-07-29T01:12:55;9.75;;;1.80;;
22644;SDS011;11489;50.834;6.752;2022-07-29T01:15:23;6.88;;;1.58;;
22644;SDS011;11489;50.834;6.752;2022-07-29T01:17:52;5.07;;;1.50;;
22644;SDS011;11489;50.834;6.752;2022-07-29T01:23:49;3.80;;;1.70;;
22644;SDS011;11489;50.834;6.752;2022-07-29T01:26:49;2.53;;;1.48;;
22644;SDS011;11489;50.834;6.752;2022-07-29T01:35:08;2.58;;;1.40;;
22644;SDS011;11489;50.834;6.752;2022-07-29T01:39:46;4.28;;;1.42;;
22644;SDS011;11489;50.834;6.752;2022-07-29T01:42:15;3.10;;;1.65;;
22644;SDS011;11489;50.834;6.752;2022-07-29T01:53:31;4.88;;;1.55;;
22644;SDS011;11489;50.834;6.752;2022-07-29T01:56:01;2.30;;;1.58;;
22644;SDS011;11489;50.834;6.752;2022-07-29T01:58:28;3.60;;;1.70;;
22644;SDS011;11489;50.834;6.752;2022-07-29T02:00:57;4.30;;;1.77;;
22644;SDS011;11489;50.834;6.752;2022-07-29T02:03:24;4.32;;;1.70;;
22644;SDS011;11489;50.834;6.752;2022-07-29T02:05:52;2.65;;;1.42;;
22644;SDS011;11489;50.834;6.752;2022-07-29T02:08:21;3.50;;;1.50;;
22644;SDS011;11489;50.834;6.752;2022-07-29T02:10:48;4.43;;;1.50;;
22644;SDS011;11489;50.834;6.752;2022-07-29T02:13:16;3.60;;;1.70;;
22644;SDS011;11489;50.834;6.752;2022-07-29T02:15:43;4.57;;;1.63;;
22644;SDS011;11489;50.834;6.752;2022-07-29T02:18:11;2.05;;;1.60;;
22644;SDS011;11489;50.834;6.752;2022-07-29T02:20:42;2.55;;;1.60;;
22644;SDS011;11489;50.834;6.752;2022-07-29T02:23:16;3.25;;;1.80;;
22644;SDS011;11489;50.834;6.752;2022-07-29T02:25:44;6.38;;;1.52;;
22644;SDS011;11489;50.834;6.752;2022-07-29T02:28:16;4.70;;;1.83;;
22644;SDS011;11489;50.834;6.752;2022-07-29T02:30:43;5.10;;;1.95;;
22644;SDS011;11489;50.834;6.752;2022-07-29T02:33:12;5.30;;;1.80;;
22644;SDS011;11489;50.834;6.752;2022-07-29T02:35:39;4.15;;;1.80;;
22644;SDS011;11489;50.834;6.752;2022-07-29T02:38:07;5.15;;;1.58;;
22644;SDS011;11489;50.834;6.752;2022-07-29T02:40:55;7.88;;;1.75;;
22644;SDS011;11489;50.834;6.752;2022-07-29T02:43:24;5.22;;;2.00;;
22644;SDS011;11489;50.834;6.752;2022-07-29T02:45:51;2.78;;;1.75;;
22644;SDS011;11489;50.834;6.752;2022-07-29T02:48:19;4.93;;;1.67;;
22644;SDS011;11489;50.834;6.752;2022-07-29T02:50:54;4.53;;;1.48;;
22644;SDS011;11489;50.834;6.752;2022-07-29T02:53:27;3.30;;;1.80;;
22644;SDS011;11489;50.834;6.752;2022-07-29T02:56:04;5.50;;;1.60;;
22644;SDS011;11489;50.834;6.752;2022-07-29T02:58:38;4.35;;;1.80;;
22644;SDS011;11489;50.834;6.752;2022-07-29T03:01:21;8.52;;;1.58;;
22644;SDS011;11489;50.834;6.752;2022-07-29T03:03:49;3.83;;;1.40;;
22644;SDS011;11489;50.834;6.752;2022-07-29T03:06:18;7.05;;;1.80;;
22644;SDS011;11489;50.834;6.752;2022-07-29T03:08:45;7.20;;;1.40;;
22644;SDS011;11489;50.834;6.752;2022-07-29T03:11:12;6.45;;;1.80;;
22644;SDS011;11489;50.834;6.752;2022-07-29T03:13:38;6.40;;;1.88;;
22644;SDS011;11489;50.834;6.752;2022-07-29T03:16:04;5.10;;;1.40;;
22644;SDS011;11489;50.834;6.752;2022-07-29T03:18:31;7.22;;;1.80;;
22644;SDS011;11489;50.834;6.752;2022-07-29T03:20:58;4.07;;;1.77;;
22644;SDS011;11489;50.834;6.752;2022-07-29T03:23:24;7.30;;;1.83;;
22644;SDS011;11489;50.834;6.752;2022-07-29T03:25:52;6.32;;;1.70;;
22644;SDS011;11489;50.834;6.752;2022-07-29T03:28:18;5.35;;;1.88;;
22644;SDS011;11489;50.834;6.752;2022-07-29T03:30:45;4.25;;;1.90;;
22644;SDS011;11489;50.834;6.752;2022-07-29T03:33:11;3.55;;;1.77;;
22644;SDS011;11489;50.834;6.752;2022-07-29T03:35:37;4.85;;;1.70;;
22644;SDS011;11489;50.834;6.752;2022-07-29T03:38:03;2.45;;;1.40;;
22644;SDS011;11489;50.834;6.752;2022-07-29T03:40:31;4.40;;;1.40;;
22644;SDS011;11489;50.834;6.752;2022-07-29T03:43:07;3.92;;;1.40;;
22644;SDS011;11489;50.834;6.752;2022-07-29T03:45:35;5.70;;;1.55;;
22644;SDS011;11489;50.834;6.752;2022-07-29T03:48:05;5.22;;;1.80;;
22644;SDS011;11489;50.834;6.752;2022-07-29T03:50:35;4.05;;;1.70;;
22644;SDS011;11489;50.834;6.752;2022-07-29T03:53:01;6.90;;;1.77;;
22644;SDS011;11489;50.834;6.752;2022-07-29T03:55:28;2.95;;;1.75;;
22644;SDS011;11489;50.834;6.752;2022-07-29T03:57:56;4.75;;;1.65;;
22644;SDS011;11489;50.834;6.752;2022-07-29T04:00:26;2.58;;;1.55;;
22644;SDS011;11489;50.834;6.752;2022-07-29T04:02:52;8.10;;;1.90;;
22644;SDS011;11489;50.834;6.752;2022-07-29T04:05:18;5.63;;;2.10;;
22644;SDS011;11489;50.834;6.752;2022-07-29T04:07:45;3.72;;;1.88;;
22644;SDS011;11489;50.834;6.752;2022-07-29T04:10:12;4.13;;;1.98;;
22644;SDS011;11489;50.834;6.752;2022-07-29T04:12:38;7.05;;;1.70;;
22644;SDS011;11489;50.834;6.752;2022-07-29T04:15:03;5.25;;;2.00;;
22644;SDS011;11489;50.834;6.752;2022-07-29T04:17:30;2.33;;;1.63;;
22644;SDS011;11489;50.834;6.752;2022-07-29T04:19:55;2.47;;;1.40;;
22644;SDS011;11489;50.834;6.752;2022-07-29T04:22:21;5.35;;;1.90;;
22644;SDS011;11489;50.834;6.752;2022-07-29T04:24:47;7.40;;;2.10;;
22644;SDS011;11489;50.834;6.752;2022-07-29T04:27:13;4.38;;;2.03;;
22644;SDS011;11489;50.834;6.752;2022-07-29T04:29:38;5.47;;;1.60;;
22644;SDS011;11489;50.834;6.752;2022-07-29T04:32:04;3.15;;;1.52;;
22644;SDS011;11489;50.834;6.752;2022-07-29T04:34:30;2.95;;;1.60;;
22644;SDS011;11489;50.834;6.752;2022-07-29T04:36:56;5.07;;;1.80;;
22644;SDS011;11489;50.834;6.752;2022-07-29T04:39:21;3.00;;;1.55;;
22644;SDS011;11489;50.834;6.752;2022-07-29T04:41:47;5.82;;;2.00;;
22644;SDS011;11489;50.834;6.752;2022-07-29T04:44:14;3.80;;;1.80;;
22644;SDS011;11489;50.834;6.752;2022-07-29T04:46:39;3.40;;;1.73;;
22644;SDS011;11489;50.834;6.752;2022-07-29T04:49:05;3.40;;;1.65;;
22644;SDS011;11489;50.834;6.752;2022-07-29T04:51:31;2.95;;;1.48;;
22644;SDS011;11489;50.834;6.752;2022-07-29T04:53:57;3.30;;;1.65;;
22644;SDS011;11489;50.834;6.752;2022-07-29T04:56:22;2.75;;;1.58;;
22644;SDS011;11489;50.834;6.752;2022-07-29T04:58:48;4.85;;;1.50;;
22644;SDS011;11489;50.834;6.752;2022-07-29T05:01:14;4.55;;;1.80;;
22644;SDS011;11489;50.834;6.752;2022-07-29T05:03:39;2.45;;;1.33;;
22644;SDS011;11489;50.834;6.752;2022-07-29T05:06:05;5.15;;;1.58;;
22644;SDS011;11489;50.834;6.752;2022-07-29T05:08:31;4.07;;;1.65;;
22644;SDS011;11489;50.834;6.752;2022-07-29T05:10:57;4.82;;;2.10;;
22644;SDS011;11489;50.834;6.752;2022-07-29T05:13:23;2.85;;;1.52;;
22644;SDS011;11489;50.834;6.752;2022-07-29T05:15:48;2.70;;;1.35;;
22644;SDS011;11489;50.834;6.752;2022-07-29T05:18:14;8.18;;;1.90;;
22644;SDS011;11489;50.834;6.752;2022-07-29T05:20:40;2.88;;;1.52;;
22644;SDS011;11489;50.834;6.752;2022-07-29T05:23:06;4.22;;;1.50;;
22644;SDS011;11489;50.834;6.752;2022-07-29T05:25:32;4.25;;;1.40;;
22644;SDS011;11489;50.834;6.752;2022-07-29T05:27:58;5.95;;;1.65;;
22644;SDS011;11489;50.834;6.752;2022-07-29T05:30:24;4.32;;;1.40;;
22644;SDS011;11489;50.834;6.752;2022-07-29T05:32:49;2.90;;;1.30;;
22644;SDS011;11489;50.834;6.752;2022-07-29T05:35:15;7.55;;;1.67;;
22644;SDS011;11489;50.834;6.752;2022-07-29T05:37:41;4.95;;;1.33;;
22644;SDS011;11489;50.834;6.752;2022-07-29T05:40:07;4.35;;;1.50;;
22644;SDS011;11489;50.834;6.752;2022-07-29T05:42:33;6.63;;;1.52;;
22644;SDS011;11489;50.834;6.752;2022-07-29T05:44:59;5.10;;;1.60;;
22644;SDS011;11489;50.834;6.752;2022-07-29T05:47:25;7.38;;;1.80;;
22644;SDS011;11489;50.834;6.752;2022-07-29T05:49:51;4.43;;;1.58;;
22644;SDS011;11489;50.834;6.752;2022-07-29T05:52:17;3.13;;;1.40;;
22644;SDS011;11489;50.834;6.752;2022-07-29T05:54:43;5.63;;;1.42;;
22644;SDS011;11489;50.834;6.752;2022-07-29T05:57:14;3.75;;;1.63;;
22644;SDS011;11489;50.834;6.752;2022-07-29T05:59:41;3.25;;;1.63;;
22644;SDS011;11489;50.834;6.752;2022-07-29T06:02:07;4.50;;;1.42;;
22644;SDS011;11489;50.834;6.752;2022-07-29T06:04:32;3.50;;;1.75;;
22644;SDS011;11489;50.834;6.752;2022-07-29T06:06:58;4.22;;;1.65;;
22644;SDS011;11489;50.834;6.752;2022-07-29T06:09:24;5.07;;;1.50;;
22644;SDS011;11489;50.834;6.752;2022-07-29T06:11:51;6.10;;;1.70;;
22644;SDS011;11489;50.834;6.752;2022-07-29T06:14:17;7.38;;;1.85;;
22644;SDS011;11489;50.834;6.752;2022-07-29T06:16:43;4.35;;;2.08;;
22644;SDS011;11489;50.834;6.752;2022-07-29T06:19:09;4.68;;;2.20;;
22644;SDS011;11489;50.834;6.752;2022-07-29T06:21:35;7.70;;;2.65;;
22644;SDS011;11489;50.834;6.752;2022-07-29T06:24:01;8.68;;;2.55;;
22644;SDS011;11489;50.834;6.752;2022-07-29T06:26:27;7.93;;;2.33;;
22644;SDS011;11489;50.834;6.752;2022-07-29T06:28:53;12.65;;;2.58;;
22644;SDS011;11489;50.834;6.752;2022-07-29T06:31:18;7.07;;;2.42;;
22644;SDS011;11489;50.834;6.752;2022-07-29T06:33:44;7.57;;;2.78;;
22644;SDS011;11489;50.834;6.752;2022-07-29T06:36:10;5.10;;;2.40;;
22644;SDS011;11489;50.834;6.752;2022-07-29T06:38:35;12.02;;;2.78;;
22644;SDS011;11489;50.834;6.752;2022-07-29T06:41:03;13.68;;;2.10;;
22644;SDS011;11489;50.834;6.752;2022-07-29T06:43:39;6.15;;;2.47;;
22644;SDS011;11489;50.834;6.752;2022-07-29T06:46:07;5.90;;;2.50;;
22644;SDS011;11489;50.834;6.752;2022-07-29T06:48:35;5.95;;;2.33;;
22644;SDS011;11489;50.834;6.752;2022-07-29T06:51:04;7.95;;;2.70;;
22644;SDS011;11489;50.834;6.752;2022-07-29T06:53:31;8.95;;;2.42;;
22644;SDS011;11489;50.834;6.752;2022-07-29T06:55:58;4.65;;;2.15;;
22644;SDS011;11489;50.834;6.752;2022-07-29T06:58:26;4.32;;;2.30;;
22644;SDS011;11489;50.834;6.752;2022-07-29T07:00:52;5.05;;;2.10;;
22644;SDS011;11489;50.834;6.752;2022-07-29T07:03:18;5.30;;;2.20;;
22644;SDS011;11489;50.834;6.752;2022-07-29T07:05:44;7.80;;;2.45;;
22644;SDS011;11489;50.834;6.752;2022-07-29T07:08:10;6.82;;;2.20;;
22644;SDS011;11489;50.834;6.752;2022-07-29T07:10:37;5.95;;;2.28;;
22644;SDS011;11489;50.834;6.752;2022-07-29T07:13:03;8.20;;;2.42;;
22644;SDS011;11489;50.834;6.752;2022-07-29T07:15:30;8.43;;;2.63;;
22644;SDS011;11489;50.834;6.752;2022-07-29T07:17:56;5.03;;;2.53;;
22644;SDS011;11489;50.834;6.752;2022-07-29T07:20:25;5.10;;;2.33;;
22644;SDS011;11489;50.834;6.752;2022-07-29T07:22:50;5.38;;;2.45;;
22644;SDS011;11489;50.834;6.752;2022-07-29T07:25:16;11.30;;;3.08;;
22644;SDS011;11489;50.834;6.752;2022-07-29T07:27:42;8.10;;;2.60;;
22644;SDS011;11489;50.834;6.752;2022-07-29T07:30:09;9.93;;;3.00;;
22644;SDS011;11489;50.834;6.752;2022-07-29T07:32:35;8.13;;;2.42;;
22644;SDS011;11489;50.834;6.752;2022-07-29T07:35:01;5.70;;;2.33;;
22644;SDS011;11489;50.834;6.752;2022-07-29T07:37:28;5.60;;;2.60;;
22644;SDS011;11489;50.834;6.752;2022-07-29T07:39:54;7.75;;;2.28;;
22644;SDS011;11489;50.834;6.752;2022-07-29T07:42:20;6.35;;;2.53;;
22644;SDS011;11489;50.834;6.752;2022-07-29T07:44:45;5.53;;;2.28;;
22644;SDS011;11489;50.834;6.752;2022-07-29T07:47:13;7.25;;;2.72;;
22644;SDS011;11489;50.834;6.752;2022-07-29T07:49:46;5.35;;;2.40;;
22644;SDS011;11489;50.834;6.752;2022-07-29T07:52:12;7.20;;;2.75;;
22644;SDS011;11489;50.834;6.752;2022-07-29T07:54:42;7.05;;;3.83;;
22644;SDS011;11489;50.834;6.752;2022-07-29T07:57:09;4.28;;;2.65;;
22644;SDS011;11489;50.834;6.752;2022-07-29T07:59:34;9.63;;;3.53;;
22644;SDS011;11489;50.834;6.752;2022-07-29T08:02:00;8.02;;;3.30;;
22644;SDS011;11489;50.834;6.752;2022-07-29T08:04:26;11.88;;;3.30;;
22644;SDS011;11489;50.834;6.752;2022-07-29T08:06:52;7.25;;;2.60;;
22644;SDS011;11489;50.834;6.752;2022-07-29T08:09:22;6.35;;;3.17;;
22644;SDS011;11489;50.834;6.752;2022-07-29T08:11:48;7.05;;;2.47;;
22644;SDS011;11489;50.834;6.752;2022-07-29T08:14:14;5.05;;;2.72;;
22644;SDS011;11489;50.834;6.752;2022-07-29T08:16:40;6.03;;;2.60;;
22644;SDS011;11489;50.834;6.752;2022-07-29T08:19:07;8.50;;;2.83;;
22644;SDS011;11489;50.834;6.752;2022-07-29T08:21:32;7.38;;;2.45;;
22644;SDS011;11489;50.834;6.752;2022-07-29T08:23:58;6.05;;;2.70;;
22644;SDS011;11489;50.834;6.752;2022-07-29T08:26:42;8.35;;;2.70;;
22644;SDS011;11489;50.834;6.752;2022-07-29T08:29:08;4.70;;;3.05;;
22644;SDS011;11489;50.834;6.752;2022-07-29T08:31:35;7.30;;;2.85;;
22644;SDS011;11489;50.834;6.752;2022-07-29T08:34:02;4.85;;;2.60;;
22644;SDS011;11489;50.834;6.752;2022-07-29T08:36:28;7.80;;;2.90;;
22644;SDS011;11489;50.834;6.752;2022-07-29T08:38:55;6.85;;;2.92;;
22644;SDS011;11489;50.834;6.752;2022-07-29T08:41:20;7.35;;;2.70;;
22644;SDS011;11489;50.834;6.752;2022-07-29T08:43:47;6.82;;;2.88;;
22644;SDS011;11489;50.834;6.752;2022-07-29T08:46:13;8.10;;;3.30;;
22644;SDS011;11489;50.834;6.752;2022-07-29T08:48:39;6.18;;;3.28;;
22644;SDS011;11489;50.834;6.752;2022-07-29T08:51:06;6.03;;;2.97;;
22644;SDS011;11489;50.834;6.752;2022-07-29T08:53:33;6.78;;;3.00;;
22644;SDS011;11489;50.834;6.752;2022-07-29T08:55:59;11.95;;;3.15;;
22644;SDS011;11489;50.834;6.752;2022-07-29T08:58:27;7.80;;;2.92;;
22644;SDS011;11489;50.834;6.752;2022-07-29T09:00:57;7.90;;;2.92;;
22644;SDS011;11489;50.834;6.752;2022-07-29T09:03:29;7.22;;;3.30;;
22644;SDS011;11489;50.834;6.752;2022-07-29T09:05:57;5.65;;;3.13;;
22644;SDS011;11489;50.834;6.752;2022-07-29T09:08:24;5.95;;;3.08;;
22644;SDS011;11489;50.834;6.752;2022-07-29T09:10:50;6.55;;;2.67;;
22644;SDS011;11489;50.834;6.752;2022-07-29T09:13:16;6.28;;;2.92;;
22644;SDS011;11489;50.834;6.752;2022-07-29T09:15:43;7.35;;;3.20;;
22644;SDS011;11489;50.834;6.752;2022-07-29T09:18:09;6.28;;;3.35;;
22644;SDS011;11489;50.834;6.752;2022-07-29T09:20:35;6.75;;;3.00;;
22644;SDS011;11489;50.834;6.752;2022-07-29T09:23:19;5.20;;;2.75;;
22644;SDS011;11489;50.834;6.752;2022-07-29T09:25:45;6.97;;;2.80;;
22644;SDS011;11489;50.834;6.752;2022-07-29T09:28:14;6.47;;;2.78;;
22644;SDS011;11489;50.834;6.752;2022-07-29T09:30:51;8.90;;;2.90;;
22644;SDS011;11489;50.834;6.752;2022-07-29T09:33:20;7.47;;;2.55;;
22644;SDS011;11489;50.834;6.752;2022-07-29T09:35:58;5.82;;;2.40;;
22644;SDS011;11489;50.834;6.752;2022-07-29T09:38:34;4.30;;;2.80;;
22644;SDS011;11489;50.834;6.752;2022-07-29T09:41:02;5.30;;;2.58;;
22644;SDS011;11489;50.834;6.752;2022-07-29T09:43:28;4.00;;;2.58;;
22644;SDS011;11489;50.834;6.752;2022-07-29T09:45:54;6.65;;;2.47;;
22644;SDS011;11489;50.834;6.752;2022-07-29T09:48:21;5.80;;;2.40;;
22644;SDS011;11489;50.834;6.752;2022-07-29T09:50:49;4.88;;;2.83;;
22644;SDS011;11489;50.834;6.752;2022-07-29T09:53:34;6.57;;;2.65;;
22644;SDS011;11489;50.834;6.752;2022-07-29T09:56:02;6.50;;;2.20;;
22644;SDS011;11489;50.834;6.752;2022-07-29T09:58:28;3.35;;;2.00;;
22644;SDS011;11489;50.834;6.752;2022-07-29T10:00:54;5.18;;;2.20;;
22644;SDS011;11489;50.834;6.752;2022-07-29T10:03:21;2.70;;;1.75;;
22644;SDS011;11489;50.834;6.752;2022-07-29T10:06:06;3.67;;;2.10;;
22644;SDS011;11489;50.834;6.752;2022-07-29T10:08:34;4.22;;;1.80;;
22644;SDS011;11489;50.834;6.752;2022-07-29T10:11:13;4.00;;;1.85;;
22644;SDS011;11489;50.834;6.752;2022-07-29T10:13:40;5.00;;;2.38;;
22644;SDS011;11489;50.834;6.752;2022-07-29T10:16:08;4.15;;;2.05;;
22644;SDS011;11489;50.834;6.752;2022-07-29T10:18:34;5.28;;;1.88;;
22644;SDS011;11489;50.834;6.752;2022-07-29T10:21:00;5.63;;;2.30;;
22644;SDS011;11489;50.834;6.752;2022-07-29T10:23:29;4.82;;;2.10;;
22644;SDS011;11489;50.834;6.752;2022-07-29T10:25:55;4.93;;;2.35;;
22644;SDS011;11489;50.834;6.752;2022-07-29T10:28:21;5.78;;;2.00;;
22644;SDS011;11489;50.834;6.752;2022-07-29T10:30:48;2.97;;;1.92;;
22644;SDS011;11489;50.834;6.752;2022-07-29T10:33:32;4.03;;;2.00;;
22644;SDS011;11489;50.834;6.752;2022-07-29T10:36:47;3.95;;;2.35;;
22644;SDS011;11489;50.834;6.752;2022-07-29T10:40:10;2.20;;;1.95;;
22644;SDS011;11489;50.834;6.752;2022-07-29T10:42:54;3.70;;;1.70;;
22644;SDS011;11489;50.834;6.752;2022-07-29T10:45:25;4.07;;;2.20;;
22644;SDS011;11489;50.834;6.752;2022-07-29T10:48:02;7.47;;;1.80;;
22644;SDS011;11489;50.834;6.752;2022-07-29T10:50:51;3.10;;;2.00;;
22644;SDS011;11489;50.834;6.752;2022-07-29T10:56:23;3.95;;;2.20;;
22644;SDS011;11489;50.834;6.752;2022-07-29T11:01:45;5.80;;;2.10;;
22644;SDS011;11489;50.834;6.752;2022-07-29T11:04:15;5.93;;;2.33;;
22644;SDS011;11489;50.834;6.752;2022-07-29T11:09:25;3.42;;;1.95;;
22644;SDS011;11489;50.834;6.752;2022-07-29T11:11:52;3.97;;;2.13;;
22644;SDS011;11489;50.834;6.752;2022-07-29T11:15:04;6.07;;;2.10;;
22644;SDS011;11489;50.834;6.752;2022-07-29T11:17:21;3.90;;;1.80;;
22644;SDS011;11489;50.834;6.752;2022-07-29T11:19:47;5.25;;;1.92;;
22644;SDS011;11489;50.834;6.752;2022-07-29T11:22:30;5.60;;;2.28;;
22644;SDS011;11489;50.834;6.752;2022-07-29T11:25:13;4.78;;;2.00;;
22644;SDS011;11489;50.834;6.752;2022-07-29T11:27:40;2.17;;;1.40;;
22644;SDS011;11489;50.834;6.752;2022-07-29T11:30:05;3.85;;;1.80;;
22644;SDS011;11489;50.834;6.752;2022-07-29T11:32:36;3.05;;;1.70;;
22644;SDS011;11489;50.834;6.752;2022-07-29T11:35:11;5.70;;;1.88;;
22644;SDS011;11489;50.834;6.752;2022-07-29T11:37:42;2.85;;;1.77;;
22644;SDS011;11489;50.834;6.752;2022-07-29T11:40:09;4.45;;;1.90;;
22644;SDS011;11489;50.834;6.752;2022-07-29T11:42:37;6.03;;;2.15;;
22644;SDS011;11489;50.834;6.752;2022-07-29T11:47:48;4.63;;;2.33;;
22644;SDS011;11489;50.834;6.752;2022-07-29T11:50:16;4.05;;;2.40;;
22644;SDS011;11489;50.834;6.752;2022-07-29T11:52:51;2.70;;;1.83;;
22644;SDS011;11489;50.834;6.752;2022-07-29T11:55:18;3.53;;;1.90;;
22644;SDS011;11489;50.834;6.752;2022-07-29T11:57:53;4.65;;;1.75;;
22644;SDS011;11489;50.834;6.752;2022-07-29T12:00:27;4.32;;;2.10;;
22644;SDS011;11489;50.834;6.752;2022-07-29T12:02:58;9.30;;;2.30;;
22644;SDS011;11489;50.834;6.752;2022-07-29T12:05:32;3.38;;;1.83;;
22644;SDS011;11489;50.834;6.752;2022-07-29T12:08:12;4.28;;;1.75;;
22644;SDS011;11489;50.834;6.752;2022-07-29T12:10:43;3.78;;;2.10;;
22644;SDS011;11489;50.834;6.752;2022-07-29T12:13:11;3.17;;;1.85;;
22644;SDS011;11489;50.834;6.752;2022-07-29T12:15:37;3.58;;;1.77;;
22644;SDS011;11489;50.834;6.752;2022-07-29T12:20:58;2.80;;;1.55;;
22644;SDS011;11489;50.834;6.752;2022-07-29T12:23:25;3.90;;;1.80;;
22644;SDS011;11489;50.834;6.752;2022-07-29T12:25:51;2.72;;;1.63;;
22644;SDS011;11489;50.834;6.752;2022-07-29T12:28:17;4.15;;;1.50;;
22644;SDS011;11489;50.834;6.752;2022-07-29T12:30:47;5.15;;;1.90;;
22644;SDS011;11489;50.834;6.752;2022-07-29T12:33:15;3.53;;;1.60;;
22644;SDS011;11489;50.834;6.752;2022-07-29T12:35:56;4.38;;;1.83;;
22644;SDS011;11489;50.834;6.752;2022-07-29T12:38:23;5.85;;;2.13;;
22644;SDS011;11489;50.834;6.752;2022-07-29T12:40:49;4.05;;;1.90;;
22644;SDS011;11489;50.834;6.752;2022-07-29T12:43:18;7.45;;;2.55;;
22644;SDS011;11489;50.834;6.752;2022-07-29T12:45:52;4.43;;;1.80;;
22644;SDS011;11489;50.834;6.752;2022-07-29T12:51:31;3.85;;;1.98;;
22644;SDS011;11489;50.834;6.752;2022-07-29T12:56:30;5.38;;;2.00;;
22644;SDS011;11489;50.834;6.752;2022-07-29T12:58:56;3.80;;;2.03;;
22644;SDS011;11489;50.834;6.752;2022-07-29T13:01:22;3.33;;;1.77;;
22644;SDS011;11489;50.834;6.752;2022-07-29T13:03:51;3.17;;;1.77;;
22644;SDS011;11489;50.834;6.752;2022-07-29T13:06:37;2.58;;;1.70;;
22644;SDS011;11489;50.834;6.752;2022-07-29T13:09:16;3.20;;;1.70;;
22644;SDS011;11489;50.834;6.752;2022-07-29T13:14:11;3.10;;;1.60;;
22644;SDS011;11489;50.834;6.752;2022-07-29T13:22:11;4.03;;;1.98;;
22644;SDS011;11489;50.834;6.752;2022-07-29T13:25:12;4.50;;;2.40;;
22644;SDS011;11489;50.834;6.752;2022-07-29T13:27:34;5.10;;;2.00;;
22644;SDS011;11489;50.834;6.752;2022-07-29T13:30:03;3.78;;;2.00;;
22644;SDS011;11489;50.834;6.752;2022-07-29T13:32:30;4.93;;;1.52;;
22644;SDS011;11489;50.834;6.752;2022-07-29T13:34:59;4.85;;;1.63;;
22644;SDS011;11489;50.834;6.752;2022-07-29T13:37:27;2.75;;;1.98;;
22644;SDS011;11489;50.834;6.752;2022-07-29T13:39:54;6.80;;;2.20;;
22644;SDS011;11489;50.834;6.752;2022-07-29T13:42:21;3.00;;;2.05;;
22644;SDS011;11489;50.834;6.752;2022-07-29T13:44:48;2.85;;;2.30;;
22644;SDS011;11489;50.834;6.752;2022-07-29T13:47:16;4.85;;;2.25;;
22644;SDS011;11489;50.834;6.752;2022-07-29T13:49:42;4.25;;;2.17;;
22644;SDS011;11489;50.834;6.752;2022-07-29T13:52:07;11.38;;;3.17;;
22644;SDS011;11489;50.834;6.752;2022-07-29T13:54:33;4.03;;;2.50;;
22644;SDS011;11489;50.834;6.752;2022-07-29T13:57:02;3.95;;;2.72;;
22644;SDS011;11489;50.834;6.752;2022-07-29T13:59:31;10.70;;;2.60;;
22644;SDS011;11489;50.834;6.752;2022-07-29T14:01:57;4.68;;;2.50;;
22644;SDS011;11489;50.834;6.752;2022-07-29T14:04:23;8.63;;;2.75;;
22644;SDS011;11489;50.834;6.752;2022-07-29T14:06:49;5.55;;;2.40;;
22644;SDS011;11489;50.834;6.752;2022-07-29T14:09:15;5.47;;;3.05;;
22644;SDS011;11489;50.834;6.752;2022-07-29T14:11:41;6.22;;;2.97;;
22644;SDS011;11489;50.834;6.752;2022-07-29T14:14:07;5.13;;;2.78;;
22644;SDS011;11489;50.834;6.752;2022-07-29T14:16:32;7.15;;;2.40;;
22644;SDS011;11489;50.834;6.752;2022-07-29T14:18:58;6.07;;;2.95;;
22644;SDS011;11489;50.834;6.752;2022-07-29T14:21:24;4.88;;;2.60;;
22644;SDS011;11489;50.834;6.752;2022-07-29T14:23:50;5.38;;;3.10;;
22644;SDS011;11489;50.834;6.752;2022-07-29T14:26:17;4.30;;;2.67;;
22644;SDS011;11489;50.834;6.752;2022-07-29T14:28:42;4.63;;;2.63;;
22644;SDS011;11489;50.834;6.752;2022-07-29T14:31:09;3.15;;;2.13;;
22644;SDS011;11489;50.834;6.752;2022-07-29T14:33:35;4.75;;;2.40;;
22644;SDS011;11489;50.834;6.752;2022-07-29T14:36:01;4.45;;;2.40;;
22644;SDS011;11489;50.834;6.752;2022-07-29T14:38:26;3.78;;;2.00;;
22644;SDS011;11489;50.834;6.752;2022-07-29T14:40:52;3.90;;;2.50;;
22644;SDS011;11489;50.834;6.752;2022-07-29T14:43:18;6.90;;;1.95;;
22644;SDS011;11489;50.834;6.752;2022-07-29T14:45:43;3.30;;;2.25;;
22644;SDS011;11489;50.834;6.752;2022-07-29T14:48:09;5.00;;;2.08;;
22644;SDS011;11489;50.834;6.752;2022-07-29T14:50:36;6.45;;;2.10;;
22644;SDS011;11489;50.834;6.752;2022-07-29T14:53:02;4.60;;;1.88;;
22644;SDS011;11489;50.834;6.752;2022-07-29T14:55:28;5.78;;;2.20;;
22644;SDS011;11489;50.834;6.752;2022-07-29T14:57:54;3.35;;;1.90;;
22644;SDS011;11489;50.834;6.752;2022-07-29T15:00:20;3.65;;;2.00;;
22644;SDS011;11489;50.834;6.752;2022-07-29T15:02:47;3.17;;;1.80;;
22644;SDS011;11489;50.834;6.752;2022-07-29T15:05:13;3.92;;;2.25;;
22644;SDS011;11489;50.834;6.752;2022-07-29T15:07:39;3.88;;;1.80;;
22644;SDS011;11489;50.834;6.752;2022-07-29T15:10:04;5.25;;;1.80;;
22644;SDS011;11489;50.834;6.752;2022-07-29T15:12:31;2.38;;;1.60;;
22644;SDS011;11489;50.834;6.752;2022-07-29T15:14:57;3.53;;;1.90;;
22644;SDS011;11489;50.834;6.752;2022-07-29T15:17:22;2.63;;;1.65;;
22644;SDS011;11489;50.834;6.752;2022-07-29T15:19:48;5.35;;;1.90;;
22644;SDS011;11489;50.834;6.752;2022-07-29T15:22:13;3.08;;;1.70;;
22644;SDS011;11489;50.834;6.752;2022-07-29T15:24:39;3.10;;;1.75;;
22644;SDS011;11489;50.834;6.752;2022-07-29T15:27:05;4.63;;;1.70;;
22644;SDS011;11489;50.834;6.752;2022-07-29T15:29:31;1.88;;;1.77;;
22644;SDS011;11489;50.834;6.752;2022-07-29T15:31:56;2.50;;;1.98;;
22644;SDS011;11489;50.834;6.752;2022-07-29T15:34:22;3.05;;;1.80;;
22644;SDS011;11489;50.834;6.752;2022-07-29T15:36:49;3.17;;;1.90;;
22644;SDS011;11489;50.834;6.752;2022-07-29T15:39:16;3.72;;;1.67;;
22644;SDS011;11489;50.834;6.752;2022-07-29T15:41:49;2.88;;;1.80;;
22644;SDS011;11489;50.834;6.752;2022-07-29T15:44:15;2.42;;;1.60;;